createdAt,value
2023-01-19T00:01:24.520Z,20.70
2023-01-19T00:03:52.540Z,19.60
2023-01-19T00:06:19.173Z,24.02
2023-01-19T00:08:46.093Z,28.17
2023-01-19T00:11:13.152Z,22.90
2023-01-19T00:13:40.296Z,23.47
2023-01-19T00:16:07.521Z,30.55
2023-01-19T00:18:34.370Z,22.50
2023-01-19T00:21:00.908Z,23.08
2023-01-19T00:23:27.503Z,20.23
2023-01-19T00:25:54.294Z,24.30
2023-01-19T00:28:23.315Z,24.70
2023-01-19T00:30:50.421Z,23.10
2023-01-19T00:33:16.997Z,24.75
2023-01-19T00:35:43.838Z,26.63
2023-01-19T00:38:11.359Z,22.80
2023-01-19T00:40:38.193Z,19.55
2023-01-19T00:43:05.138Z,24.55
2023-01-19T00:45:32.062Z,19.42
2023-01-19T00:47:58.726Z,22.88
2023-01-19T00:50:26.527Z,25.50
2023-01-19T00:52:54.401Z,24.80
2023-01-19T00:55:23.293Z,23.88
2023-01-19T00:57:49.842Z,20.08
2023-01-19T01:00:19.488Z,26.10
2023-01-19T01:02:48.231Z,28.33
2023-01-19T01:05:14.879Z,20.83
2023-01-19T01:07:41.831Z,23.42
2023-01-19T01:10:23.275Z,21.50
2023-01-19T01:12:56.040Z,22.00
2023-01-19T01:15:26.637Z,24.67
2023-01-19T01:17:53.706Z,24.58
2023-01-19T01:20:25.406Z,25.00
2023-01-19T01:22:53.142Z,25.27
2023-01-19T01:25:22.625Z,23.20
2023-01-19T01:27:49.424Z,22.27
2023-01-19T01:30:16.365Z,24.65
2023-01-19T01:32:43.886Z,25.67
2023-01-19T01:35:11.404Z,24.08
2023-01-19T01:40:19.674Z,23.53
2023-01-19T01:42:46.554Z,22.52
2023-01-19T01:45:35.488Z,22.05
2023-01-19T01:48:31.941Z,22.90
2023-01-19T01:51:26.660Z,20.48
2023-01-19T01:54:03.703Z,21.33
2023-01-19T01:56:38.277Z,22.13
2023-01-19T01:59:08.148Z,18.15
2023-01-19T02:01:54.380Z,18.42
2023-01-19T02:04:22.326Z,21.58
2023-01-19T02:07:07.568Z,16.53
2023-01-19T02:09:56.246Z,13.65
2023-01-19T02:12:42.522Z,15.68
2023-01-19T02:15:23.518Z,14.68
2023-01-19T02:17:50.911Z,15.65
2023-01-19T02:20:17.932Z,13.93
2023-01-19T02:22:49.711Z,14.77
2023-01-19T02:25:19.127Z,14.45
2023-01-19T02:27:46.094Z,15.73
2023-01-19T02:30:16.611Z,12.35
2023-01-19T02:32:43.664Z,17.73
2023-01-19T02:35:11.636Z,13.32
2023-01-19T02:37:40.403Z,12.52
2023-01-19T02:40:19.982Z,15.38
2023-01-19T02:42:50.056Z,12.27
2023-01-19T02:45:24.214Z,13.60
2023-01-19T02:47:52.030Z,11.65
2023-01-19T02:50:38.102Z,13.77
2023-01-19T02:53:29.870Z,14.52
2023-01-19T02:56:41.268Z,14.13
2023-01-19T02:59:26.263Z,11.10
2023-01-19T03:02:31.243Z,11.70
2023-01-19T03:05:17.453Z,14.50
2023-01-19T03:08:03.571Z,11.65
2023-01-19T03:10:33.088Z,14.88
2023-01-19T03:13:36.259Z,11.47
2023-01-19T03:16:19.682Z,12.43
2023-01-19T03:18:50.198Z,13.82
2023-01-19T03:21:19.593Z,10.25
2023-01-19T03:23:46.752Z,12.40
2023-01-19T03:26:18.537Z,10.80
2023-01-19T03:28:45.964Z,11.13
2023-01-19T03:31:20.808Z,11.48
2023-01-19T03:33:55.375Z,12.00
2023-01-19T03:36:37.035Z,9.13
2023-01-19T03:39:05.218Z,10.93
2023-01-19T03:41:32.781Z,9.77
2023-01-19T03:44:00.055Z,8.70
2023-01-19T03:46:27.333Z,8.95
2023-01-19T03:48:54.907Z,10.18
2023-01-19T03:51:22.045Z,10.67
2023-01-19T03:53:50.080Z,9.32
2023-01-19T03:56:25.172Z,11.40
2023-01-19T03:58:52.132Z,10.32
2023-01-19T04:01:22.908Z,11.88
2023-01-19T04:03:50.526Z,8.53
2023-01-19T04:06:19.287Z,11.77
2023-01-19T04:08:49.088Z,10.15
2023-01-19T04:11:15.893Z,12.32
2023-01-19T04:13:42.457Z,11.13
2023-01-19T04:16:10.414Z,9.53
2023-01-19T04:18:38.313Z,12.07
2023-01-19T04:21:08.657Z,10.15
2023-01-19T04:23:35.199Z,11.88
2023-01-19T04:26:04.486Z,14.50
2023-01-19T04:28:31.793Z,10.00
2023-01-19T04:30:58.839Z,13.57
2023-01-19T04:33:26.528Z,10.93
2023-01-19T04:35:54.577Z,12.55
2023-01-19T04:38:21.613Z,10.35
2023-01-19T04:40:52.682Z,12.50
2023-01-19T04:43:20.413Z,9.60
2023-01-19T04:45:47.547Z,8.95
2023-01-19T04:48:15.718Z,13.48
2023-01-19T04:50:42.264Z,9.43
2023-01-19T04:53:09.422Z,9.27
2023-01-19T04:55:37.849Z,11.25
2023-01-19T04:58:05.811Z,9.75
2023-01-19T05:00:32.372Z,8.43
2023-01-19T05:02:59.383Z,9.77
2023-01-19T05:05:27.363Z,10.53
2023-01-19T05:07:55.323Z,11.18
2023-01-19T05:10:22.246Z,11.35
2023-01-19T05:12:49.241Z,12.43
2023-01-19T05:15:15.998Z,10.60
2023-01-19T05:17:42.685Z,9.87
2023-01-19T05:20:16.490Z,8.95
2023-01-19T05:22:50.881Z,10.40
2023-01-19T05:25:17.914Z,7.78
2023-01-19T05:27:45.261Z,8.43
2023-01-19T05:30:13.391Z,8.57
2023-01-19T05:32:40.139Z,9.95
2023-01-19T05:35:07.298Z,10.07
2023-01-19T05:37:37.436Z,12.50
2023-01-19T05:40:07.835Z,11.85
2023-01-19T05:42:34.832Z,11.13
2023-01-19T05:45:01.502Z,11.13
2023-01-19T05:47:31.181Z,10.40
2023-01-19T05:49:57.967Z,10.43
2023-01-19T05:52:26.721Z,12.85
2023-01-19T05:54:55.247Z,11.43
2023-01-19T05:57:23.404Z,13.13
2023-01-19T05:59:51.004Z,14.00
2023-01-19T06:02:18.140Z,13.57
2023-01-19T06:04:44.965Z,11.38
2023-01-19T06:07:12.762Z,11.23
2023-01-19T06:09:39.359Z,10.05
2023-01-19T06:12:06.401Z,12.07
2023-01-19T06:14:34.270Z,12.45
2023-01-19T06:17:02.580Z,13.70
2023-01-19T06:19:29.113Z,11.57
2023-01-19T06:21:59.825Z,14.07
2023-01-19T06:24:27.924Z,16.10
2023-01-19T06:26:54.883Z,14.25
2023-01-19T06:29:22.131Z,12.35
2023-01-19T06:31:49.153Z,11.47
2023-01-19T06:34:17.343Z,16.85
2023-01-19T06:36:43.961Z,12.38
2023-01-19T06:39:11.201Z,13.52
2023-01-19T06:41:40.531Z,14.68
2023-01-19T06:44:07.200Z,16.43
2023-01-19T06:46:41.526Z,13.23
2023-01-19T06:49:09.425Z,15.82
2023-01-19T06:51:40.725Z,15.55
2023-01-19T06:54:11.340Z,12.93
2023-01-19T06:56:40.632Z,17.33
2023-01-19T06:59:19.037Z,16.30
2023-01-19T07:01:55.246Z,12.25
2023-01-19T07:04:38.426Z,12.73
2023-01-19T07:07:15.046Z,25.20
2023-01-19T07:10:08.929Z,31.50
2023-01-19T07:13:02.518Z,22.15
2023-01-19T07:15:40.805Z,26.65
2023-01-19T07:19:00.801Z,25.92
2023-01-19T07:21:38.792Z,23.67
2023-01-19T07:24:08.402Z,27.63
2023-01-19T07:26:52.756Z,22.00
2023-01-19T07:29:22.292Z,25.13
2023-01-19T07:31:50.768Z,27.85
2023-01-19T07:34:19.843Z,35.60
2023-01-19T07:36:47.913Z,33.53
2023-01-19T07:42:38.827Z,27.27
2023-01-19T07:45:19.437Z,27.85
2023-01-19T07:47:55.041Z,24.25
2023-01-19T07:50:42.777Z,18.87
2023-01-19T07:53:15.891Z,19.70
2023-01-19T07:55:42.837Z,22.40
2023-01-19T07:58:51.395Z,20.30
2023-01-19T08:01:23.544Z,24.35
2023-01-19T08:03:57.898Z,31.30
2023-01-19T08:06:56.906Z,40.80
2023-01-19T08:09:25.618Z,45.53
2023-01-19T08:12:04.719Z,39.83
2023-01-19T08:14:31.302Z,38.80
2023-01-19T08:17:01.482Z,31.63
2023-01-19T08:19:28.816Z,37.17
2023-01-19T08:21:56.607Z,30.48
2023-01-19T08:24:29.670Z,33.55
2023-01-19T08:27:00.882Z,30.23
2023-01-19T08:29:30.700Z,26.23
2023-01-19T08:32:00.299Z,25.17
2023-01-19T08:34:33.440Z,26.33
2023-01-19T08:37:01.391Z,29.08
2023-01-19T08:39:30.647Z,31.38
2023-01-19T08:41:59.960Z,25.63
2023-01-19T08:44:29.654Z,25.48
2023-01-19T08:46:57.117Z,26.67
2023-01-19T08:49:24.029Z,22.20
2023-01-19T08:51:52.003Z,21.75
2023-01-19T08:54:20.242Z,28.07
2023-01-19T08:56:46.833Z,24.67
2023-01-19T08:59:14.274Z,25.63
2023-01-19T09:01:41.747Z,22.85
2023-01-19T09:04:08.570Z,21.55
2023-01-19T09:06:35.262Z,21.47
2023-01-19T09:09:02.546Z,23.77
2023-01-19T09:11:31.351Z,22.75
2023-01-19T09:13:58.167Z,23.35
2023-01-19T09:16:29.289Z,23.70
2023-01-19T09:18:55.914Z,24.20
2023-01-19T09:21:22.437Z,21.15
2023-01-19T09:23:49.446Z,18.48
2023-01-19T09:26:16.673Z,18.95
2023-01-19T09:28:48.337Z,19.60
2023-01-19T09:31:15.193Z,18.47
2023-01-19T09:33:41.999Z,16.55
2023-01-19T09:36:08.584Z,17.15
2023-01-19T09:38:38.038Z,20.80
2023-01-19T09:41:18.529Z,20.85
2023-01-19T09:43:49.291Z,21.37
2023-01-19T09:46:29.638Z,20.20
2023-01-19T09:48:58.320Z,24.80
2023-01-19T09:51:50.320Z,19.95
2023-01-19T09:54:16.874Z,17.45
2023-01-19T09:56:44.643Z,16.90
2023-01-19T09:59:33.425Z,17.92
2023-01-19T10:02:18.843Z,16.50
2023-01-19T10:05:05.947Z,16.75
2023-01-19T10:08:30.234Z,15.13
2023-01-19T10:10:58.380Z,15.60
2023-01-19T10:13:36.531Z,13.25
2023-01-19T10:16:25.189Z,17.75
2023-01-19T10:18:59.433Z,19.35
2023-01-19T10:21:40.147Z,22.65
2023-01-19T10:24:07.842Z,18.00
2023-01-19T10:26:40.944Z,20.77
2023-01-19T10:29:37.799Z,20.30
2023-01-19T10:32:12.222Z,17.92
2023-01-19T10:34:41.684Z,15.88
2023-01-19T10:37:31.332Z,15.33
2023-01-19T10:40:09.473Z,15.27
2023-01-19T10:42:41.122Z,16.02
2023-01-19T10:45:18.241Z,16.77
2023-01-19T10:47:49.602Z,17.10
2023-01-19T10:50:33.914Z,14.67
2023-01-19T10:53:09.969Z,15.80
2023-01-19T10:55:40.214Z,11.52
2023-01-19T10:58:29.109Z,13.98
2023-01-19T11:00:55.927Z,4.63
2023-01-19T11:03:27.319Z,14.30
2023-01-19T11:05:54.086Z,15.68
2023-01-19T11:08:30.077Z,14.00
2023-01-19T11:11:02.381Z,18.52
2023-01-19T11:13:28.975Z,17.58
2023-01-19T11:15:58.428Z,13.27
2023-01-19T11:18:39.414Z,16.50
2023-01-19T11:21:16.656Z,12.52
2023-01-19T11:23:57.675Z,11.95
2023-01-19T11:26:47.924Z,10.02
2023-01-19T11:29:24.528Z,12.50
2023-01-19T11:31:52.285Z,16.15
2023-01-19T11:34:27.211Z,9.85
2023-01-19T11:36:58.354Z,15.93
2023-01-19T11:39:29.093Z,11.32
2023-01-19T11:41:58.969Z,13.53
2023-01-19T11:44:33.141Z,12.07
2023-01-19T11:47:11.419Z,12.85
2023-01-19T11:49:53.703Z,13.10
2023-01-19T11:52:20.245Z,10.75
2023-01-19T11:54:56.334Z,12.73
2023-01-19T11:57:23.121Z,16.67
2023-01-19T11:59:52.389Z,17.92
2023-01-19T12:02:32.471Z,12.88
2023-01-19T12:05:05.302Z,12.70
2023-01-19T12:07:35.711Z,16.13
2023-01-19T12:10:31.984Z,8.93
2023-01-19T12:13:01.387Z,15.00
2023-01-19T12:15:42.368Z,8.15
2023-01-19T12:18:16.521Z,11.27
2023-01-19T12:20:46.919Z,16.37
2023-01-19T12:23:32.018Z,14.25
2023-01-19T12:26:13.856Z,12.65
2023-01-19T12:28:42.643Z,7.53
2023-01-19T12:31:09.500Z,11.00
2023-01-19T12:33:39.873Z,10.47
2023-01-19T12:36:33.222Z,7.95
2023-01-19T12:39:08.787Z,8.07
2023-01-19T12:41:39.257Z,14.02
2023-01-19T12:44:12.066Z,6.88
2023-01-19T12:46:42.372Z,12.43
2023-01-19T12:49:38.510Z,8.63
2023-01-19T12:52:20.415Z,9.18
2023-01-19T12:55:15.012Z,8.50
2023-01-19T12:57:46.902Z,13.70
2023-01-19T13:00:22.543Z,14.50
2023-01-19T13:03:18.349Z,9.50
2023-01-19T13:05:44.911Z,8.98
2023-01-19T13:11:00.407Z,13.05
2023-01-19T13:13:31.097Z,10.90
2023-01-19T13:16:21.259Z,10.13
2023-01-19T13:18:52.795Z,11.63
2023-01-19T13:21:30.579Z,14.43
2023-01-19T13:24:02.732Z,13.55
2023-01-19T13:26:32.626Z,13.43
2023-01-19T13:29:07.666Z,11.73
2023-01-19T13:31:40.187Z,14.23
2023-01-19T13:34:15.457Z,10.32
2023-01-19T13:36:51.108Z,17.10
2023-01-19T13:39:38.138Z,15.83
2023-01-19T13:42:09.727Z,15.60
2023-01-19T13:44:41.443Z,16.38
2023-01-19T13:47:15.352Z,18.23
2023-01-19T13:49:45.130Z,15.55
2023-01-19T13:52:19.225Z,14.73
2023-01-19T13:54:54.352Z,16.77
2023-01-19T13:57:27.180Z,16.88
2023-01-19T14:00:11.985Z,19.85
2023-01-19T14:02:51.015Z,19.25
2023-01-19T14:05:28.830Z,18.60
2023-01-19T14:08:01.548Z,23.23
2023-01-19T14:10:28.754Z,19.02
2023-01-19T14:13:00.127Z,17.73
2023-01-19T14:15:30.322Z,15.15
2023-01-19T14:18:27.957Z,24.10
2023-01-19T14:21:14.098Z,17.98
2023-01-19T14:23:51.354Z,18.95
2023-01-19T14:26:54.641Z,19.73
2023-01-19T14:29:24.381Z,18.50
2023-01-19T14:32:06.412Z,18.70
2023-01-19T14:34:34.284Z,22.17
2023-01-19T14:37:02.568Z,25.38
2023-01-19T14:39:31.973Z,22.67
2023-01-19T14:42:00.481Z,23.35
2023-01-19T14:44:38.180Z,19.53
2023-01-19T14:47:06.104Z,18.30
2023-01-19T14:49:38.617Z,20.10
2023-01-19T14:52:15.842Z,23.52
2023-01-19T14:54:45.028Z,17.20
2023-01-19T14:57:13.726Z,30.67
2023-01-19T14:59:40.850Z,20.50
2023-01-19T15:02:07.805Z,13.90
2023-01-19T15:04:34.322Z,23.25
2023-01-19T15:07:00.915Z,22.45
2023-01-19T15:09:27.501Z,23.07
2023-01-19T15:11:54.096Z,30.73
2023-01-19T15:14:21.696Z,28.00
2023-01-19T15:16:48.323Z,21.10
2023-01-19T15:19:16.859Z,26.00
2023-01-19T15:21:46.266Z,25.53
2023-01-19T15:24:14.885Z,27.95
2023-01-19T15:26:42.882Z,30.98
2023-01-19T15:29:23.358Z,27.67
2023-01-19T15:31:50.571Z,34.70
2023-01-19T15:34:18.009Z,28.43
2023-01-19T15:36:44.775Z,29.67
2023-01-19T15:39:12.661Z,27.95
2023-01-19T15:41:39.846Z,32.20
2023-01-19T15:44:07.147Z,31.42
2023-01-19T15:46:33.890Z,33.93
2023-01-19T15:49:00.474Z,35.95
2023-01-19T15:51:27.653Z,36.80
2023-01-19T15:53:55.272Z,38.85
2023-01-19T15:56:28.711Z,38.20
2023-01-19T15:58:55.678Z,39.87
2023-01-19T16:01:24.269Z,36.72
2023-01-19T16:03:51.214Z,39.97
2023-01-19T16:06:18.040Z,44.80
2023-01-19T16:08:45.098Z,44.22
2023-01-19T16:11:14.497Z,42.47
2023-01-19T16:13:46.385Z,44.78
2023-01-19T16:16:21.155Z,48.13
2023-01-19T16:18:49.353Z,45.60
2023-01-19T16:21:16.017Z,42.88
2023-01-19T16:23:42.555Z,41.50
2023-01-19T16:26:29.262Z,46.42
2023-01-19T16:29:00.155Z,43.47
2023-01-19T16:31:29.248Z,46.35
2023-01-19T16:33:55.956Z,50.00
2023-01-19T16:36:34.437Z,50.40
2023-01-19T16:39:11.872Z,53.63
2023-01-19T16:41:38.769Z,54.25
2023-01-19T16:44:10.800Z,54.90
2023-01-19T16:46:44.664Z,52.92
2023-01-19T16:49:19.496Z,55.90
2023-01-19T16:51:46.358Z,49.20
2023-01-19T16:54:16.383Z,46.88
2023-01-19T16:56:43.235Z,56.13
2023-01-19T16:59:12.640Z,63.75
2023-01-19T17:01:42.289Z,58.63
2023-01-19T17:04:27.120Z,51.28
2023-01-19T17:07:19.442Z,58.92
2023-01-19T17:09:47.688Z,63.17
2023-01-19T17:12:14.305Z,62.13
2023-01-19T17:14:43.145Z,53.63
2023-01-19T17:17:12.269Z,44.72
2023-01-19T17:19:47.391Z,61.95
2023-01-19T17:22:15.049Z,58.08
2023-01-19T17:24:43.197Z,60.22
2023-01-19T17:27:10.167Z,44.67
2023-01-19T17:29:36.961Z,35.65
2023-01-19T17:32:03.905Z,65.35
2023-01-19T17:34:33.254Z,59.03
2023-01-19T17:37:08.343Z,64.72
2023-01-19T17:39:34.881Z,68.23
2023-01-19T17:42:01.616Z,68.80
2023-01-19T17:44:35.332Z,74.32
2023-01-19T17:47:02.981Z,67.32
2023-01-19T17:49:30.761Z,68.80
2023-01-19T17:51:59.663Z,73.07
2023-01-19T17:54:26.240Z,71.38
2023-01-19T17:56:52.924Z,74.07
2023-01-19T17:59:21.309Z,71.70
2023-01-19T18:01:51.146Z,64.10
2023-01-19T18:04:26.764Z,71.53
2023-01-19T18:06:57.124Z,64.45
2023-01-19T18:09:24.301Z,62.17
2023-01-19T18:11:50.909Z,62.35
2023-01-19T18:14:18.751Z,59.30
2023-01-19T18:16:45.364Z,59.53
2023-01-19T18:19:13.160Z,62.35
2023-01-19T18:21:40.847Z,61.75
2023-01-19T18:24:07.665Z,55.50
2023-01-19T18:26:35.245Z,58.97
2023-01-19T18:29:04.556Z,65.70
2023-01-19T18:31:31.616Z,58.42
2023-01-19T18:34:01.078Z,66.90
2023-01-19T18:36:27.763Z,62.15
2023-01-19T18:38:54.276Z,64.07
2023-01-19T18:41:21.805Z,67.17
2023-01-19T18:43:48.667Z,60.95
2023-01-19T18:46:17.789Z,76.07
2023-01-19T18:48:47.640Z,71.32
2023-01-19T18:51:19.023Z,68.15
2023-01-19T18:53:45.687Z,78.30
2023-01-19T18:56:13.644Z,73.78
2023-01-19T18:58:40.253Z,68.82
2023-01-19T19:01:20.121Z,70.55
2023-01-19T19:03:46.783Z,69.43
2023-01-19T19:06:14.400Z,84.37
2023-01-19T19:08:43.261Z,86.47
2023-01-19T19:11:11.161Z,83.82
2023-01-19T19:13:41.061Z,83.90
2023-01-19T19:16:09.198Z,91.57
2023-01-19T19:18:37.558Z,86.53
2023-01-19T19:21:06.095Z,96.43
2023-01-19T19:23:33.012Z,103.57
2023-01-19T19:26:10.370Z,102.43
2023-01-19T19:28:41.933Z,98.60
2023-01-19T19:31:11.166Z,100.30
2023-01-19T19:33:38.981Z,107.55
2023-01-19T19:36:06.996Z,99.78
2023-01-19T19:38:42.899Z,110.60
2023-01-19T19:41:12.792Z,112.72
2023-01-19T19:43:39.652Z,107.23
2023-01-19T19:46:11.045Z,105.25
2023-01-19T19:48:46.004Z,98.05
2023-01-19T19:51:38.936Z,98.97
2023-01-19T19:54:08.395Z,103.78
2023-01-19T19:56:43.908Z,102.47
2023-01-19T19:59:11.559Z,92.80
2023-01-19T20:01:38.523Z,104.05
2023-01-19T20:04:15.525Z,95.57
2023-01-19T20:06:44.729Z,98.50
2023-01-19T20:09:16.222Z,96.40
2023-01-19T20:11:46.701Z,89.97
2023-01-19T20:14:14.385Z,92.70
2023-01-19T20:16:41.026Z,97.85
2023-01-19T20:19:07.812Z,96.47
2023-01-19T20:21:39.249Z,95.40
2023-01-19T20:24:13.358Z,95.88
2023-01-19T20:26:42.884Z,90.72
2023-01-19T20:29:11.124Z,84.45
2023-01-19T20:31:45.012Z,87.05
2023-01-19T20:34:14.283Z,86.50
2023-01-19T20:36:41.609Z,78.15
2023-01-19T20:39:12.762Z,89.15
2023-01-19T20:41:43.501Z,84.95
2023-01-19T20:44:22.324Z,89.30
2023-01-19T20:46:51.702Z,90.87
2023-01-19T20:49:19.661Z,84.30
2023-01-19T20:51:47.015Z,88.90
2023-01-19T20:54:17.342Z,87.95
2023-01-19T20:56:44.177Z,96.88
2023-01-19T20:59:12.024Z,88.37
2023-01-19T21:01:39.171Z,104.03
2023-01-19T21:04:05.993Z,88.45
2023-01-19T21:06:32.829Z,86.95
2023-01-19T21:09:00.935Z,88.30
2023-01-19T21:11:29.419Z,79.87
2023-01-19T21:13:56.485Z,91.22
2023-01-19T21:16:27.612Z,79.00
2023-01-19T21:18:57.782Z,85.07
2023-01-19T21:21:30.838Z,81.57
2023-01-19T21:24:14.396Z,67.77
2023-01-19T21:26:41.866Z,73.72
2023-01-19T21:29:14.130Z,75.57
2023-01-19T21:31:41.374Z,67.20
2023-01-19T21:34:08.031Z,61.75
2023-01-19T21:36:36.486Z,71.00
2023-01-19T21:39:05.312Z,69.38
2023-01-19T21:41:35.071Z,60.42
2023-01-19T21:44:04.756Z,53.35
2023-01-19T21:46:37.361Z,46.72
2023-01-19T21:49:07.603Z,46.00
2023-01-19T21:51:36.396Z,48.38
2023-01-19T21:54:04.553Z,44.97
2023-01-19T21:56:33.395Z,49.22
2023-01-19T21:59:03.602Z,47.30
2023-01-19T22:01:36.450Z,49.33
2023-01-19T22:04:05.264Z,43.10
2023-01-19T22:06:32.168Z,46.83
2023-01-19T22:09:01.023Z,41.60
2023-01-19T22:11:30.765Z,45.58
2023-01-19T22:14:00.050Z,39.63
2023-01-19T22:16:28.732Z,37.00
2023-01-19T22:18:59.442Z,26.50
2023-01-19T22:21:39.284Z,37.40
2023-01-19T22:24:06.458Z,25.70
2023-01-19T22:26:34.469Z,37.37
2023-01-19T22:29:02.738Z,39.00
2023-01-19T22:31:30.438Z,35.90
2023-01-19T22:33:57.903Z,35.60
2023-01-19T22:36:29.162Z,36.83
2023-01-19T22:39:02.161Z,38.60
2023-01-19T22:41:31.637Z,34.25
2023-01-19T22:44:08.930Z,29.17
2023-01-19T22:46:36.535Z,33.88
2023-01-19T22:49:04.426Z,27.80
2023-01-19T22:51:32.304Z,32.17
2023-01-19T22:53:59.203Z,30.50
2023-01-19T22:56:30.149Z,26.33
2023-01-19T22:58:57.092Z,25.75
2023-01-19T23:01:36.594Z,23.77
2023-01-19T23:04:04.513Z,22.57
2023-01-19T23:06:33.087Z,23.55
2023-01-19T23:09:02.321Z,23.23
2023-01-19T23:11:35.679Z,23.00
2023-01-19T23:14:02.617Z,21.23
2023-01-19T23:16:29.202Z,22.40
2023-01-19T23:18:57.365Z,22.85
2023-01-19T23:21:28.591Z,23.20
2023-01-19T23:24:02.586Z,22.02
2023-01-19T23:26:30.775Z,23.42
2023-01-19T23:29:03.012Z,26.13
2023-01-19T23:31:32.710Z,18.77
2023-01-19T23:34:01.752Z,23.27
2023-01-19T23:36:31.078Z,21.60
2023-01-19T23:39:00.123Z,24.65
2023-01-19T23:41:36.155Z,21.57
2023-01-19T23:44:03.049Z,24.85
2023-01-19T23:46:30.638Z,24.75
2023-01-19T23:48:58.979Z,21.38
2023-01-19T23:51:28.931Z,21.45
2023-01-19T23:53:58.071Z,25.77
2023-01-19T23:56:26.938Z,22.73
2023-01-19T23:58:56.254Z,22.80
